LJLJLPPT

Guest
Details From LJLJ - LJUBLJANA
To LPPT - Lisboa
Flight Number -
Tags decoded
Created
Modified
Stats Distance 1,131 nm / 2,094 km
Max Altitude 0 ft / 0 m
Waypoints 2
Social Downloads 0
Likes 0
Share VATSIM

Download

Looking for another format? Having issues loading an existing format? Contact us
Advertisement - Login to hide

Notes

Requested: LJLJ LPPT

Route

LJLJ LPPT

ID Type Via Altitude Latitude Longitude Leg Dist Tot Dist Heading (true) Name
O LJLJ APT - 0 ft / 0 m 46.22368˚ 14.45761˚ - 0 nm - LJUBLJANA
O LPPT APT - 0 ft / 0 m 38.77856˚ -9.13515˚ 1130 nm 1130 nm 255° / 239° Lisboa

Altitude Profile

Advertisement - Login to hide

Weather


0- 5 10 15 20 25 30 35+ Temperature / ° C

Clouds and Precipitation
Forecast for 2017-12-18 00:00 UTC. Updated 29 minutes ago

Ground ~20,000 ft ~40,000 ft Winds

LJLJ

Details ICAO LJLJ (LJU)
Name LJUBLJANA
Region Slovenia
Timezone Europe/Ljubljana (UTC+1.0)
Stats Elevation 1,273 ft / 388 m (AMSL)
Location 46.223685° 14.457608°
Runways 1
Magnetic Variation 3.663° E

METAR

LJLJ 172130Z VRB02KT 2000 BR OVC002 M02/M02 Q1022 NOSIG

Decode

TAF

TAF TAF LJLJ 172000Z 1721/1821 VRB02KT 0800 FZFG VV002 TEMPO 1721/1821 2500 BR OVC003 PROB30 TEMPO 1812/1817 7000 NSW FEW003 SCT100

Decode

Departure Runways

ID Width Length Bearing (true) Bearing (mag) Surface Threshold Offset Overrun Length
13 148 ft / 45 m 10,811 ft / 3,295 m 126.47° 122.81° Asphalt 0 ft / 0 m 0 ft / 0 m
31 148 ft / 45 m 10,811 ft / 3,295 m 306.49° 302.83° Asphalt 0 ft / 0 m 0 ft / 0 m

LPPT

Details ICAO LPPT (LIS)
Name Lisboa
Region Portugal
Timezone Europe/Lisbon (UTC+0.0)
Stats Elevation 374 ft / 114 m (AMSL)
Location 38.778559° -9.135146°
Runways 2
Magnetic Variation 2.363° W

METAR

LPPT 172130Z 33007KT CAVOK 08/03 Q1032

Decode

TAF

TAF LPPT 171700Z 1718/1824 05008KT CAVOK PROB30 1718/1801 35008KT BECMG 1818/1820 35007KT

Decode

Destination Runways

ID Width Length Bearing (true) Bearing (mag) Surface Threshold Offset Overrun Length
03 148 ft / 45 m 12,518 ft / 3,815 m 22.70° 25.06° Asphalt 296 ft / 90 m 0 ft / 0 m
17 148 ft / 45 m 7,922 ft / 2,415 m 168.38° 170.74° Asphalt 0 ft / 0 m 0 ft / 0 m
21 148 ft / 45 m 12,518 ft / 3,815 m 202.72° 205.08° Asphalt 1,969 ft / 600 m 0 ft / 0 m
35 148 ft / 45 m 7,922 ft / 2,415 m 348.38° 350.74° Asphalt 492 ft / 150 m 0 ft / 0 m

Approach Navaids

Runway Type Ident Frequency Range Bearing (true) Bearing (mag) Slope Elevation
03 Localiser ILI 109.10 MHz 18 nm / 33 km 22.74° 25.10° - 335 ft / 102 m (AMSL)
03 Glidescope ILI 109.10 MHz 10 nm / 19 km 22.71° 25.07° 3.00° 419 ft / 128 m (AMSL)
03 DME ILI 109.10 MHz 18 nm / 33 km - - - 419 ft / 128 m (AMSL)
21 Localiser ILB 109.50 MHz 18 nm / 33 km 202.59° 204.95° - 335 ft / 102 m (AMSL)
21 Glidescope ILB 109.50 MHz 10 nm / 19 km 202.71° 205.07° 3.00° 423 ft / 129 m (AMSL)
21 DME ILB 109.50 MHz 18 nm / 33 km - - - 423 ft / 129 m (AMSL)

Popular Alternatives